Terminal Aerodrome Forecast
Issued by NWS

Home | Current Version | Previous Version | Text Only | Print | Product List | Glossary On
Versions: 1 2 3 4 5 6 7 8 9 10 11 12
000
FTUS41 KCAR 232320
TAFFVE
TAF
KFVE 232320Z 2400/2424 18010G18KT P6SM SCT120 BKN200
     FM240300 21004KT P6SM SCT015 OVC050
     FM241000 00000KT P6SM BKN015
     FM241600 32004KT P6SM BKN035
     FM242300 36009KT P6SM OVC020=

USA.gov is the U.S. government's official web portal to all federal, state and local government web resources and services.